createdAt,value
2023-05-08T00:01:23.191Z,11.63
2023-05-08T00:03:52.874Z,11.25
2023-05-08T00:06:21.384Z,10.15
2023-05-08T00:08:49.629Z,10.63
2023-05-08T00:11:18.279Z,7.53
2023-05-08T00:13:46.651Z,9.77
2023-05-08T00:16:15.239Z,12.23
2023-05-08T00:18:43.143Z,9.57
2023-05-08T00:21:11.794Z,10.75
2023-05-08T00:23:39.570Z,8.75
2023-05-08T00:26:07.786Z,29.38
2023-05-08T00:28:35.649Z,33.97
2023-05-08T00:31:04.184Z,15.48
2023-05-08T00:33:32.634Z,11.05
2023-05-08T00:36:02.091Z,12.07
2023-05-08T00:38:36.686Z,10.25
2023-05-08T00:41:05.121Z,10.18
2023-05-08T00:43:33.891Z,11.50
2023-05-08T00:46:02.538Z,9.35
2023-05-08T00:48:34.200Z,8.45
2023-05-08T00:51:06.485Z,7.07
2023-05-08T00:53:37.549Z,9.57
2023-05-08T00:56:07.186Z,9.00
2023-05-08T00:58:35.735Z,9.30
2023-05-08T01:01:04.689Z,8.27
2023-05-08T01:03:34.179Z,8.07
2023-05-08T01:06:04.004Z,9.20
2023-05-08T01:08:32.706Z,8.20
2023-05-08T01:11:07.885Z,8.10
2023-05-08T01:13:39.150Z,6.57
2023-05-08T01:16:16.134Z,7.60
2023-05-08T01:18:52.548Z,6.90
2023-05-08T01:21:38.489Z,6.32
2023-05-08T01:24:25.610Z,7.85
2023-05-08T01:27:03.507Z,11.23
2023-05-08T01:29:50.544Z,11.68
2023-05-08T01:32:31.474Z,8.82
2023-05-08T01:35:21.122Z,8.02
2023-05-08T01:37:56.576Z,8.68
2023-05-08T01:40:43.775Z,8.70
2023-05-08T01:43:19.524Z,8.95
2023-05-08T01:45:49.429Z,11.75
2023-05-08T01:48:19.554Z,11.25
2023-05-08T01:50:48.488Z,7.65
2023-05-08T01:53:25.711Z,7.50
2023-05-08T01:55:56.862Z,8.15
2023-05-08T01:58:26.537Z,9.07
2023-05-08T02:00:55.862Z,7.32
2023-05-08T02:03:25.750Z,6.80
2023-05-08T02:05:55.746Z,10.05
2023-05-08T02:08:25.298Z,8.90
2023-05-08T02:10:54.680Z,9.07
2023-05-08T02:13:23.865Z,9.10
2023-05-08T02:15:54.192Z,8.82
2023-05-08T02:18:24.941Z,14.88
2023-05-08T02:20:54.935Z,9.75
2023-05-08T02:23:25.688Z,8.38
2023-05-08T02:25:54.618Z,9.63
2023-05-08T02:28:24.201Z,10.38
2023-05-08T02:30:52.884Z,10.10
2023-05-08T02:33:22.722Z,11.00
2023-05-08T02:35:52.369Z,10.52
2023-05-08T02:38:22.465Z,10.07
2023-05-08T02:40:54.122Z,8.32
2023-05-08T02:43:24.042Z,8.88
2023-05-08T02:45:56.305Z,9.40
2023-05-08T02:48:45.172Z,8.95
2023-05-08T02:51:31.815Z,10.18
2023-05-08T02:54:05.707Z,12.82
2023-05-08T02:56:33.937Z,9.93
2023-05-08T02:59:15.362Z,9.65
2023-05-08T03:02:02.265Z,11.15
2023-05-08T03:04:33.115Z,11.98
2023-05-08T03:07:02.337Z,11.13
2023-05-08T03:09:40.343Z,9.82
2023-05-08T03:12:12.232Z,10.90
2023-05-08T03:14:44.060Z,9.32
2023-05-08T03:17:13.977Z,14.95
2023-05-08T03:19:43.514Z,11.07
2023-05-08T03:22:11.828Z,11.25
2023-05-08T03:24:41.377Z,10.38
2023-05-08T03:27:10.061Z,13.25
2023-05-08T03:29:39.905Z,14.40
2023-05-08T03:32:08.774Z,21.98
2023-05-08T03:34:40.284Z,17.42
2023-05-08T03:37:09.038Z,15.50
2023-05-08T03:39:37.795Z,12.02
2023-05-08T03:42:06.554Z,10.27
2023-05-08T03:44:35.335Z,10.35
2023-05-08T03:47:04.242Z,14.23
2023-05-08T03:49:32.908Z,13.88
2023-05-08T03:52:03.200Z,14.32
2023-05-08T03:54:32.674Z,11.40
2023-05-08T03:57:01.652Z,10.02
2023-05-08T03:59:33.373Z,9.88
2023-05-08T04:02:18.436Z,9.38
2023-05-08T04:04:52.915Z,9.13
2023-05-08T04:07:48.015Z,7.53
2023-05-08T04:10:25.394Z,7.90
2023-05-08T04:13:13.585Z,5.82
2023-05-08T04:15:52.981Z,5.15
2023-05-08T04:18:28.334Z,4.95
2023-05-08T04:20:58.967Z,4.93
2023-05-08T04:23:29.959Z,4.78
2023-05-08T04:26:00.052Z,9.40
2023-05-08T04:28:28.530Z,3.75
2023-05-08T04:30:58.231Z,4.18
2023-05-08T04:33:26.567Z,5.70
2023-05-08T04:35:55.493Z,5.20
2023-05-08T04:38:23.589Z,3.53
2023-05-08T04:40:51.789Z,7.55
2023-05-08T04:43:19.900Z,5.55
2023-05-08T04:45:48.557Z,9.10
2023-05-08T04:48:16.539Z,5.53
2023-05-08T04:50:45.059Z,5.18
2023-05-08T04:53:13.255Z,3.70
2023-05-08T04:55:42.035Z,6.13
2023-05-08T04:58:11.360Z,6.18
2023-05-08T05:00:40.069Z,8.80
2023-05-08T05:03:08.064Z,4.82
2023-05-08T05:05:38.767Z,6.97
2023-05-08T05:08:07.302Z,12.43
2023-05-08T05:10:35.571Z,4.55
2023-05-08T05:13:03.634Z,4.40
2023-05-08T05:15:32.572Z,6.30
2023-05-08T05:18:01.091Z,4.32
2023-05-08T05:20:30.938Z,5.60
2023-05-08T05:22:58.993Z,6.55
2023-05-08T05:25:27.458Z,5.60
2023-05-08T05:27:55.547Z,4.32
2023-05-08T05:30:24.035Z,5.88
2023-05-08T05:32:52.184Z,4.53
2023-05-08T05:35:20.535Z,4.32
2023-05-08T05:37:48.534Z,6.43
2023-05-08T05:40:17.102Z,7.25
2023-05-08T05:42:49.997Z,4.85
2023-05-08T05:45:19.589Z,5.85
2023-05-08T05:47:50.637Z,5.35
2023-05-08T05:50:21.738Z,5.18
2023-05-08T05:52:50.451Z,5.95
2023-05-08T05:55:19.125Z,10.80
2023-05-08T05:57:48.511Z,6.80
2023-05-08T06:00:17.900Z,3.95
2023-05-08T06:02:52.708Z,6.15
2023-05-08T06:05:21.137Z,5.15
2023-05-08T06:07:49.490Z,4.00
2023-05-08T06:10:18.025Z,5.53
2023-05-08T06:12:46.314Z,4.53
2023-05-08T06:15:15.568Z,3.45
2023-05-08T06:17:46.270Z,3.85
2023-05-08T06:20:14.883Z,8.25
2023-05-08T06:22:42.930Z,2.70
2023-05-08T06:25:11.488Z,3.03
2023-05-08T06:27:39.758Z,3.90
2023-05-08T06:30:08.807Z,4.35
2023-05-08T06:32:37.237Z,4.15
2023-05-08T06:35:05.826Z,3.30
2023-05-08T06:37:34.066Z,6.13
2023-05-08T06:40:11.583Z,5.30
2023-05-08T06:42:41.416Z,5.70
2023-05-08T06:45:10.736Z,2.88
2023-05-08T06:47:39.046Z,4.82
2023-05-08T06:50:07.999Z,2.80
2023-05-08T06:52:36.388Z,3.95
2023-05-08T06:55:04.965Z,4.65
2023-05-08T06:57:32.806Z,6.30
2023-05-08T07:00:00.941Z,5.18
2023-05-08T07:02:29.439Z,2.60
2023-05-08T07:04:58.101Z,5.07
2023-05-08T07:07:26.144Z,2.95
2023-05-08T07:09:54.357Z,2.70
2023-05-08T07:12:22.568Z,2.22
2023-05-08T07:14:51.030Z,2.97
2023-05-08T07:17:19.104Z,8.10
2023-05-08T07:19:51.386Z,3.47
2023-05-08T07:22:19.543Z,4.05
2023-05-08T07:24:48.097Z,2.60
2023-05-08T07:27:16.892Z,3.13
2023-05-08T07:29:45.123Z,4.00
2023-05-08T07:32:13.091Z,3.50
2023-05-08T07:34:41.900Z,2.45
2023-05-08T07:37:10.628Z,3.85
2023-05-08T07:39:40.561Z,3.10
2023-05-08T07:42:08.622Z,2.75
2023-05-08T07:44:43.656Z,3.05
2023-05-08T07:47:18.936Z,2.58
2023-05-08T07:49:47.358Z,2.58
2023-05-08T07:52:15.432Z,3.05
2023-05-08T07:54:44.169Z,2.33
2023-05-08T07:57:12.233Z,2.20
2023-05-08T07:59:40.664Z,2.10
2023-05-08T08:02:08.676Z,2.20
2023-05-08T08:04:37.324Z,1.88
2023-05-08T08:07:05.901Z,2.40
2023-05-08T08:09:36.374Z,2.35
2023-05-08T08:12:04.833Z,2.40
2023-05-08T08:14:34.377Z,2.30
2023-05-08T08:17:06.656Z,2.10
2023-05-08T08:19:35.260Z,1.90
2023-05-08T08:22:03.161Z,3.10
2023-05-08T08:24:32.132Z,2.10
2023-05-08T08:27:00.373Z,2.10
2023-05-08T08:29:28.558Z,3.45
2023-05-08T08:31:56.567Z,2.03
2023-05-08T08:34:24.791Z,2.13
2023-05-08T08:36:52.858Z,2.65
2023-05-08T08:39:21.304Z,2.03
2023-05-08T08:41:49.111Z,2.60
2023-05-08T08:44:17.537Z,2.45
2023-05-08T08:46:51.525Z,4.50
2023-05-08T08:49:28.405Z,4.25
2023-05-08T08:52:01.106Z,1.90
2023-05-08T08:54:34.003Z,2.00
2023-05-08T08:57:05.895Z,2.80
2023-05-08T08:59:35.068Z,2.08
2023-05-08T09:02:09.368Z,2.85
2023-05-08T09:04:38.700Z,10.32
2023-05-08T09:07:09.046Z,12.02
2023-05-08T09:09:41.339Z,2.33
2023-05-08T09:12:09.498Z,1.35
2023-05-08T09:14:37.853Z,1.63
2023-05-08T09:17:06.091Z,1.20
2023-05-08T09:19:34.908Z,1.60
2023-05-08T09:22:04.601Z,1.50
2023-05-08T09:24:57.055Z,1.80
2023-05-08T09:27:26.798Z,4.00
2023-05-08T09:30:10.204Z,1.67
2023-05-08T09:32:43.079Z,1.63
2023-05-08T09:35:12.811Z,2.22
2023-05-08T09:37:44.240Z,3.83
2023-05-08T09:40:23.019Z,1.60
2023-05-08T09:42:51.181Z,2.03
2023-05-08T09:45:32.875Z,1.77
2023-05-08T09:48:01.056Z,1.60
2023-05-08T09:50:29.713Z,2.75
2023-05-08T09:52:57.684Z,1.60
2023-05-08T09:55:26.092Z,1.52
2023-05-08T09:57:57.265Z,1.67
2023-05-08T10:00:27.398Z,2.00
2023-05-08T10:02:58.610Z,2.28
2023-05-08T10:05:34.835Z,1.70
2023-05-08T10:08:19.270Z,1.65
2023-05-08T10:10:47.841Z,2.08
2023-05-08T10:13:16.114Z,2.00
2023-05-08T10:15:45.805Z,1.60
2023-05-08T10:18:19.798Z,3.75
2023-05-08T10:20:49.565Z,2.28
2023-05-08T10:23:19.252Z,2.22
2023-05-08T10:25:54.152Z,2.00
2023-05-08T10:33:41.624Z,1.50
2023-05-08T10:36:10.281Z,1.90
2023-05-08T10:38:39.225Z,2.22
2023-05-08T10:41:07.689Z,1.63
2023-05-08T10:43:36.720Z,4.05
2023-05-08T10:46:33.692Z,1.17
2023-05-08T10:49:21.855Z,1.67
2023-05-08T10:52:23.547Z,1.90
2023-05-08T10:54:54.486Z,2.45
2023-05-08T10:57:22.818Z,2.03
2023-05-08T10:59:50.942Z,1.80
2023-05-08T11:02:26.894Z,1.90
2023-05-08T11:04:55.049Z,1.42
2023-05-08T11:07:56.387Z,1.63
2023-05-08T11:10:37.290Z,1.80
2023-05-08T11:13:07.446Z,4.88
2023-05-08T11:15:37.777Z,21.90
2023-05-08T11:18:16.463Z,1.85
2023-05-08T11:20:58.533Z,2.30
2023-05-08T11:23:29.790Z,15.20
2023-05-08T11:26:14.361Z,2.10
2023-05-08T11:28:57.684Z,1.75
2023-05-08T11:31:52.186Z,2.08
2023-05-08T11:34:42.574Z,3.35
2023-05-08T11:37:18.006Z,1.83
2023-05-08T11:42:29.183Z,2.40
2023-05-08T11:45:13.285Z,2.15
2023-05-08T11:47:44.366Z,2.50
2023-05-08T11:50:15.134Z,2.50
2023-05-08T11:52:43.817Z,2.10
2023-05-08T11:55:13.923Z,2.80
2023-05-08T11:57:41.867Z,1.90
2023-05-08T12:00:12.143Z,2.78
2023-05-08T12:02:40.244Z,3.13
2023-05-08T12:05:09.845Z,2.92
2023-05-08T12:07:47.462Z,12.20
2023-05-08T12:10:16.636Z,3.22
2023-05-08T12:12:45.892Z,3.42
2023-05-08T12:15:15.777Z,1.98
2023-05-08T12:17:43.943Z,2.90
2023-05-08T12:20:17.858Z,2.50
2023-05-08T12:22:53.237Z,2.90
2023-05-08T12:25:21.857Z,3.65
2023-05-08T12:27:49.841Z,2.60
2023-05-08T12:30:19.067Z,2.42
2023-05-08T12:32:48.900Z,7.22
2023-05-08T12:35:17.559Z,2.45
2023-05-08T12:37:46.912Z,2.35
2023-05-08T12:40:31.810Z,3.30
2023-05-08T12:43:04.314Z,2.42
2023-05-08T12:45:37.098Z,2.40
2023-05-08T12:48:12.728Z,2.30
2023-05-08T12:50:46.049Z,2.72
2023-05-08T12:53:15.680Z,2.30
2023-05-08T12:55:58.137Z,12.07
2023-05-08T12:58:28.296Z,2.80
2023-05-08T13:01:16.916Z,2.45
2023-05-08T13:03:47.220Z,2.67
2023-05-08T13:06:22.419Z,2.08
2023-05-08T13:08:57.195Z,2.20
2023-05-08T13:11:31.613Z,2.97
2023-05-08T13:13:59.964Z,2.50
2023-05-08T13:16:28.524Z,2.50
2023-05-08T13:18:56.873Z,2.50
2023-05-08T13:21:27.624Z,1.95
2023-05-08T13:23:56.977Z,2.42
2023-05-08T13:26:26.360Z,2.30
2023-05-08T13:28:56.240Z,1.60
2023-05-08T13:31:25.528Z,2.15
2023-05-08T13:33:53.755Z,5.53
2023-05-08T13:36:22.526Z,7.25
2023-05-08T13:38:51.860Z,2.50
2023-05-08T13:41:20.429Z,3.17
2023-05-08T13:43:48.691Z,2.60
2023-05-08T13:46:17.795Z,6.05
2023-05-08T13:48:46.174Z,1.90
2023-05-08T13:51:20.742Z,2.08
2023-05-08T13:53:48.877Z,3.05
2023-05-08T13:56:18.419Z,1.90
2023-05-08T13:58:46.598Z,2.53
2023-05-08T14:01:25.963Z,1.90
2023-05-08T14:03:55.557Z,2.38
2023-05-08T14:06:24.181Z,1.50
2023-05-08T14:08:54.598Z,2.03
2023-05-08T14:11:24.976Z,2.40
2023-05-08T14:13:52.915Z,4.70
2023-05-08T14:16:21.678Z,2.10
2023-05-08T14:18:49.943Z,1.90
2023-05-08T14:21:18.534Z,1.80
2023-05-08T14:23:46.756Z,1.95
2023-05-08T14:26:15.274Z,2.08
2023-05-08T14:28:43.757Z,2.00
2023-05-08T14:31:12.116Z,2.90
2023-05-08T14:33:40.133Z,3.05
2023-05-08T14:36:09.309Z,2.72
2023-05-08T14:38:37.513Z,3.58
2023-05-08T14:41:06.168Z,7.63
2023-05-08T14:43:34.419Z,2.42
2023-05-08T14:46:03.040Z,3.00
2023-05-08T14:48:31.436Z,4.20
2023-05-08T14:51:00.445Z,3.25
2023-05-08T14:53:28.888Z,3.28
2023-05-08T14:56:00.049Z,5.53
2023-05-08T14:58:29.223Z,2.03
2023-05-08T15:00:57.620Z,2.15
2023-05-08T15:03:26.077Z,1.65
2023-05-08T15:05:54.711Z,4.72
2023-05-08T15:08:22.933Z,1.90
2023-05-08T15:10:52.737Z,2.67
2023-05-08T15:13:21.837Z,2.47
2023-05-08T15:15:50.181Z,2.92
2023-05-08T15:18:18.337Z,1.70
2023-05-08T15:20:47.261Z,1.80
2023-05-08T15:23:16.650Z,2.45
2023-05-08T15:25:46.953Z,24.00
2023-05-08T15:28:15.108Z,2.30
2023-05-08T15:30:46.906Z,2.33
2023-05-08T15:33:15.061Z,2.08
2023-05-08T15:35:43.510Z,1.92
2023-05-08T15:38:11.893Z,2.85
2023-05-08T15:40:42.502Z,4.00
2023-05-08T15:43:10.376Z,2.70
2023-05-08T15:45:38.655Z,5.10
2023-05-08T15:48:07.061Z,2.70
2023-05-08T15:50:35.434Z,4.82
2023-05-08T15:53:03.284Z,4.38
2023-05-08T15:55:31.935Z,3.10
2023-05-08T15:58:00.389Z,3.60
2023-05-08T16:00:36.963Z,2.90
2023-05-08T16:03:12.661Z,3.00
2023-05-08T16:05:41.119Z,3.17
2023-05-08T16:08:13.580Z,4.75
2023-05-08T16:10:42.560Z,1.98
2023-05-08T16:13:11.287Z,4.93
2023-05-08T16:15:39.761Z,4.57
2023-05-08T16:18:07.860Z,10.98
2023-05-08T16:20:36.645Z,4.80
2023-05-08T16:23:04.771Z,2.80
2023-05-08T16:25:33.164Z,5.80
2023-05-08T16:28:01.257Z,7.05
2023-05-08T16:30:30.549Z,6.22
2023-05-08T16:32:58.599Z,3.67
2023-05-08T16:35:27.339Z,3.33
2023-05-08T16:37:55.798Z,25.42
2023-05-08T16:40:24.116Z,3.10
2023-05-08T16:42:53.028Z,6.13
2023-05-08T16:45:21.218Z,19.40
2023-05-08T16:47:49.353Z,3.22
2023-05-08T16:50:17.726Z,6.43
2023-05-08T16:52:45.774Z,8.93
2023-05-08T16:55:14.512Z,11.82
2023-05-08T16:57:42.919Z,8.80
2023-05-08T17:00:12.201Z,11.15
2023-05-08T17:02:40.785Z,8.60
2023-05-08T17:05:10.633Z,13.80
2023-05-08T17:07:39.830Z,17.20
2023-05-08T17:10:09.287Z,5.97
2023-05-08T17:12:37.401Z,17.52
2023-05-08T17:15:06.996Z,11.65
2023-05-08T17:17:35.129Z,18.10
2023-05-08T17:20:03.720Z,15.02
2023-05-08T17:22:31.920Z,28.08
2023-05-08T17:25:00.295Z,13.35
2023-05-08T17:27:28.352Z,14.05
2023-05-08T17:29:57.104Z,11.80
2023-05-08T17:32:25.199Z,53.63
2023-05-08T17:34:53.902Z,16.55
2023-05-08T17:37:21.954Z,17.95
2023-05-08T17:39:50.332Z,18.73
2023-05-08T17:42:18.136Z,13.00
2023-05-08T17:44:46.552Z,15.68
2023-05-08T17:47:14.596Z,9.32
2023-05-08T17:49:45.656Z,15.88
2023-05-08T17:52:13.555Z,8.40
2023-05-08T17:54:41.725Z,9.07
2023-05-08T17:57:09.833Z,6.22
2023-05-08T17:59:38.062Z,23.45
2023-05-08T18:02:06.933Z,12.13
2023-05-08T18:04:38.325Z,11.60
2023-05-08T18:07:07.901Z,12.70
2023-05-08T18:09:36.345Z,16.00
2023-05-08T18:12:04.476Z,28.00
2023-05-08T18:14:33.073Z,33.97
2023-05-08T18:17:03.337Z,53.47
2023-05-08T18:19:31.781Z,35.03
2023-05-08T18:21:59.777Z,23.10
2023-05-08T18:24:29.673Z,49.28
2023-05-08T18:26:57.722Z,34.60
2023-05-08T18:29:26.067Z,19.65
2023-05-08T18:31:54.221Z,25.63
2023-05-08T18:34:22.656Z,29.20
2023-05-08T18:36:50.675Z,10.23
2023-05-08T18:39:19.168Z,30.27
2023-05-08T18:41:47.278Z,101.07
2023-05-08T18:44:17.903Z,63.65
2023-05-08T18:46:46.084Z,25.48
2023-05-08T18:49:16.806Z,28.90
2023-05-08T18:51:44.842Z,25.77
2023-05-08T18:54:13.604Z,31.67
2023-05-08T18:56:41.832Z,33.47
2023-05-08T18:59:10.562Z,25.20
2023-05-08T19:01:38.778Z,28.27
2023-05-08T19:04:07.203Z,31.02
2023-05-08T19:06:35.362Z,27.65
2023-05-08T19:09:04.758Z,34.03
2023-05-08T19:11:33.258Z,26.73
2023-05-08T19:14:01.736Z,57.35
2023-05-08T19:16:29.818Z,35.35
2023-05-08T19:18:57.988Z,41.10
2023-05-08T19:21:25.967Z,37.97
2023-05-08T19:23:54.387Z,30.40
2023-05-08T19:26:23.069Z,28.77
2023-05-08T19:28:51.543Z,26.27
2023-05-08T19:31:19.524Z,26.80
2023-05-08T19:33:49.114Z,34.53
2023-05-08T19:36:18.603Z,46.53
2023-05-08T19:38:47.225Z,33.92
2023-05-08T19:41:15.218Z,33.22
2023-05-08T19:43:43.469Z,34.95
2023-05-08T19:46:11.657Z,40.72
2023-05-08T19:48:40.789Z,41.92
2023-05-08T19:51:09.960Z,37.85
2023-05-08T19:53:39.880Z,37.08
2023-05-08T19:56:08.704Z,38.83
2023-05-08T19:58:38.106Z,41.50
2023-05-08T20:01:06.249Z,36.97
2023-05-08T20:03:34.759Z,32.42
2023-05-08T20:06:03.078Z,33.08
2023-05-08T20:08:31.374Z,33.35
2023-05-08T20:11:02.821Z,36.83
2023-05-08T20:13:31.340Z,28.60
2023-05-08T20:15:59.718Z,25.30
2023-05-08T20:18:28.150Z,25.17
2023-05-08T20:20:56.357Z,21.98
2023-05-08T20:23:24.816Z,22.63
2023-05-08T20:25:54.995Z,24.63
2023-05-08T20:28:26.158Z,28.95
2023-05-08T20:30:54.812Z,55.70
2023-05-08T20:33:23.269Z,49.83
2023-05-08T20:35:52.212Z,50.90
2023-05-08T20:38:21.098Z,42.05
2023-05-08T20:40:49.223Z,39.15
2023-05-08T20:43:17.859Z,28.70
2023-05-08T20:45:45.950Z,24.35
2023-05-08T20:48:14.187Z,25.70
2023-05-08T20:50:42.187Z,21.38
2023-05-08T20:53:10.822Z,20.88
2023-05-08T20:55:38.951Z,21.13
2023-05-08T20:58:08.900Z,20.42
2023-05-08T21:00:37.109Z,18.48
2023-05-08T21:03:05.582Z,16.85
2023-05-08T21:05:33.664Z,14.23
2023-05-08T21:08:03.753Z,13.40
2023-05-08T21:10:31.846Z,13.73
2023-05-08T21:13:00.281Z,12.52
2023-05-08T21:15:28.381Z,16.98
2023-05-08T21:17:57.338Z,13.63
2023-05-08T21:20:25.466Z,12.27
2023-05-08T21:22:54.358Z,12.23
2023-05-08T21:25:28.639Z,15.20
2023-05-08T21:27:57.231Z,16.75
2023-05-08T21:30:25.492Z,30.20
2023-05-08T21:32:55.000Z,18.92
2023-05-08T21:35:23.616Z,14.05
2023-05-08T21:37:54.400Z,12.05
2023-05-08T21:40:23.241Z,10.48
2023-05-08T21:42:51.556Z,9.77
2023-05-08T21:45:19.540Z,9.60
2023-05-08T21:47:48.197Z,9.80
2023-05-08T21:50:16.532Z,9.38
2023-05-08T21:52:45.002Z,9.95
2023-05-08T21:55:13.372Z,9.00
2023-05-08T21:57:41.988Z,9.57
2023-05-08T22:00:10.721Z,9.07
2023-05-08T22:02:48.889Z,9.50
2023-05-08T22:05:17.344Z,11.18
2023-05-08T22:07:45.616Z,11.77
2023-05-08T22:10:14.051Z,9.75
2023-05-08T22:12:42.730Z,9.27
2023-05-08T22:15:25.617Z,8.52
2023-05-08T22:20:25.432Z,8.18
2023-05-08T22:22:53.937Z,8.02
2023-05-08T22:25:22.154Z,10.15
2023-05-08T22:27:50.844Z,11.52
2023-05-08T22:30:18.904Z,18.70
2023-05-08T22:32:58.096Z,24.60
2023-05-08T22:35:27.748Z,47.63
2023-05-08T22:37:59.543Z,42.75
2023-05-08T22:40:28.693Z,20.75
2023-05-08T22:42:59.002Z,16.58
2023-05-08T22:45:27.469Z,12.85
2023-05-08T22:47:56.575Z,10.57
2023-05-08T22:50:24.934Z,12.30
2023-05-08T22:52:53.629Z,10.20
2023-05-08T22:55:21.484Z,13.75
2023-05-08T22:57:49.836Z,12.25
2023-05-08T23:00:17.946Z,11.15
2023-05-08T23:02:46.535Z,9.55
2023-05-08T23:05:15.567Z,8.48
2023-05-08T23:07:44.261Z,8.00
2023-05-08T23:10:14.204Z,7.20
2023-05-08T23:12:45.664Z,6.50
2023-05-08T23:15:14.002Z,7.45
2023-05-08T23:17:42.593Z,7.28
2023-05-08T23:20:11.499Z,7.28
2023-05-08T23:22:41.199Z,6.25
2023-05-08T23:25:12.629Z,7.07
2023-05-08T23:27:41.360Z,8.60
2023-05-08T23:30:13.176Z,7.90
2023-05-08T23:32:41.755Z,9.18
2023-05-08T23:35:10.080Z,20.98
2023-05-08T23:37:38.499Z,22.05
2023-05-08T23:40:08.203Z,23.67
2023-05-08T23:42:37.301Z,27.15
2023-05-08T23:45:06.506Z,25.08
2023-05-08T23:47:34.840Z,23.38
2023-05-08T23:50:02.951Z,25.83
2023-05-08T23:52:31.315Z,27.17
2023-05-08T23:54:59.218Z,26.98
2023-05-08T23:57:27.642Z,28.55
2023-05-08T23:59:55.688Z,28.20
